createdAt,value
2022-08-20T00:01:21.782Z,101609.13
2022-08-20T00:03:53.233Z,101604.94
2022-08-20T00:06:23.899Z,101606.81
2022-08-20T00:08:51.321Z,101600.81
2022-08-20T00:11:22.914Z,101604.22
2022-08-20T00:13:57.064Z,101611.81
2022-08-20T00:16:27.030Z,101619.34
2022-08-20T00:18:53.937Z,101608.78
2022-08-20T00:21:21.230Z,101611.06
2022-08-20T00:23:51.309Z,101606.56
2022-08-20T00:26:18.551Z,101604.25
2022-08-20T00:28:45.591Z,101610.34
2022-08-20T00:31:15.205Z,101607.69
2022-08-20T00:33:41.783Z,101607.28
2022-08-20T00:36:10.820Z,101609.94
2022-08-20T00:38:38.998Z,101617.16
2022-08-20T00:41:07.979Z,101613.75
2022-08-20T00:43:48.089Z,101614.91
2022-08-20T00:46:21.661Z,101617.91
2022-08-20T00:48:56.177Z,101609.63
2022-08-20T00:51:36.176Z,101610.00
2022-08-20T00:54:13.821Z,101600.94
2022-08-20T00:56:40.950Z,101604.72
2022-08-20T00:59:11.651Z,101605.84
2022-08-20T01:01:55.526Z,101606.22
2022-08-20T01:04:26.576Z,101605.47
2022-08-20T01:06:54.159Z,101614.94
2022-08-20T01:09:50.081Z,101607.00
2022-08-20T01:12:09.982Z,101597.97
2022-08-20T01:14:36.614Z,101595.31
2022-08-20T01:17:07.711Z,101597.22
2022-08-20T01:19:41.970Z,101606.28
2022-08-20T01:22:28.163Z,101613.47
2022-08-20T01:25:25.390Z,101608.94
2022-08-20T01:27:55.514Z,101615.75
2022-08-20T01:30:25.027Z,101599.91
2022-08-20T01:32:51.526Z,101606.69
2022-08-20T01:35:21.315Z,101602.88
2022-08-20T01:37:47.824Z,101604.78
2022-08-20T01:40:21.336Z,101602.13
2022-08-20T01:42:58.552Z,101607.41
2022-08-20T01:45:30.234Z,101602.88
2022-08-20T01:47:58.089Z,101595.34
2022-08-20T01:50:28.971Z,101599.19
2022-08-20T01:53:08.978Z,101598.81
2022-08-20T01:55:35.575Z,101599.94
2022-08-20T01:58:02.423Z,101603.75
2022-08-20T02:00:29.157Z,101612.78
2022-08-20T02:02:56.139Z,101611.28
2022-08-20T02:05:22.885Z,101611.69
2022-08-20T02:07:49.909Z,101610.53
2022-08-20T02:10:17.759Z,101609.03
2022-08-20T02:12:44.553Z,101614.31
2022-08-20T02:15:12.574Z,101615.84
2022-08-20T02:17:41.761Z,101611.31
2022-08-20T02:20:18.806Z,101614.31
2022-08-20T02:22:49.981Z,101612.84
2022-08-20T02:25:19.740Z,101611.69
2022-08-20T02:27:48.894Z,101603.75
2022-08-20T02:30:27.606Z,101610.97
2022-08-20T02:32:56.454Z,101612.09
2022-08-20T02:35:24.388Z,101617.38
2022-08-20T02:37:50.985Z,101622.69
2022-08-20T02:40:30.406Z,101617.78
2022-08-20T02:42:59.136Z,101615.91
2022-08-20T02:45:26.058Z,101620.44
2022-08-20T02:47:54.347Z,101615.94
2022-08-20T02:50:23.924Z,101620.44
2022-08-20T02:52:52.147Z,101610.28
2022-08-20T02:55:28.054Z,101613.63
2022-08-20T02:58:00.058Z,101617.06
2022-08-20T03:00:32.287Z,101609.50
2022-08-20T03:03:09.144Z,101617.44
2022-08-20T03:05:40.138Z,101623.09
2022-08-20T03:08:08.475Z,101615.19
2022-08-20T03:10:36.574Z,101623.09
2022-08-20T03:13:04.321Z,101613.66
2022-08-20T03:15:33.194Z,101619.34
2022-08-20T03:18:00.827Z,101619.34
2022-08-20T03:20:27.762Z,101619.72
2022-08-20T03:22:54.449Z,101622.78
2022-08-20T03:25:21.208Z,101615.59
2022-08-20T03:27:53.166Z,101617.47
2022-08-20T03:30:23.930Z,101623.53
2022-08-20T03:32:50.591Z,101619.38
2022-08-20T03:35:19.849Z,101619.75
2022-08-20T03:37:48.311Z,101631.44
2022-08-20T03:40:19.298Z,101629.63
2022-08-20T03:42:45.815Z,101631.47
2022-08-20T03:45:16.056Z,101625.84
2022-08-20T03:47:46.596Z,101626.22
2022-08-20T03:50:23.197Z,101641.31
2022-08-20T03:52:52.504Z,101639.03
2022-08-20T03:55:20.138Z,101636.38
2022-08-20T03:57:49.689Z,101645.09
2022-08-20T04:00:20.752Z,101640.22
2022-08-20T04:02:47.346Z,101636.38
2022-08-20T04:05:14.125Z,101631.13
2022-08-20T04:07:40.784Z,101625.81
2022-08-20T04:10:10.416Z,101627.34
2022-08-20T04:12:41.983Z,101625.84
2022-08-20T04:15:18.591Z,101634.94
2022-08-20T04:17:48.777Z,101634.16
2022-08-20T04:20:19.090Z,101632.28
2022-08-20T04:22:58.806Z,101644.34
2022-08-20T04:25:35.673Z,101642.09
2022-08-20T04:28:05.545Z,101648.53
2022-08-20T04:30:33.179Z,101653.41
2022-08-20T04:32:59.734Z,101656.03
2022-08-20T04:35:27.281Z,101661.72
2022-08-20T04:38:08.867Z,101662.88
2022-08-20T04:40:54.289Z,101663.25
2022-08-20T04:43:23.383Z,101662.13
2022-08-20T04:45:52.032Z,101659.84
2022-08-20T04:48:20.664Z,101666.66
2022-08-20T04:50:47.461Z,101672.31
2022-08-20T04:53:18.616Z,101671.94
2022-08-20T04:55:47.814Z,101670.41
2022-08-20T04:58:21.107Z,101673.06
2022-08-20T05:00:51.836Z,101679.13
2022-08-20T05:03:19.874Z,101679.13
2022-08-20T05:05:46.657Z,101684.00
2022-08-20T05:08:19.787Z,101685.91
2022-08-20T05:10:47.492Z,101688.19
2022-08-20T05:13:14.158Z,101691.56
2022-08-20T05:15:41.276Z,101693.81
2022-08-20T05:18:08.924Z,101699.13
2022-08-20T05:20:40.075Z,101699.13
2022-08-20T05:23:09.192Z,101705.94
2022-08-20T05:25:36.705Z,101703.28
2022-08-20T05:28:12.365Z,101708.16
2022-08-20T05:30:41.821Z,101713.81
2022-08-20T05:33:10.504Z,101705.16
2022-08-20T05:35:38.896Z,101711.19
2022-08-20T05:38:07.756Z,101712.31
2022-08-20T05:40:35.332Z,101708.56
2022-08-20T05:43:05.031Z,101706.66
2022-08-20T05:45:33.831Z,101713.44
2022-08-20T05:48:08.563Z,101710.41
2022-08-20T05:50:35.889Z,101714.94
2022-08-20T05:53:02.530Z,101717.19
2022-08-20T05:55:29.429Z,101719.84
2022-08-20T05:58:01.812Z,101716.09
2022-08-20T06:00:29.911Z,101719.81
2022-08-20T06:03:16.708Z,101719.81
2022-08-20T06:05:47.283Z,101716.06
2022-08-20T06:08:14.572Z,101717.94
2022-08-20T06:10:43.321Z,101725.47
2022-08-20T06:13:13.971Z,101715.31
2022-08-20T06:15:41.110Z,101724.72
2022-08-20T06:18:13.033Z,101723.22
2022-08-20T06:20:55.955Z,101730.75
2022-08-20T06:23:25.246Z,101725.81
2022-08-20T06:25:52.690Z,101720.19
2022-08-20T06:28:19.269Z,101730.00
2022-08-20T06:30:46.070Z,101726.94
2022-08-20T06:33:12.869Z,101735.25
2022-08-20T06:35:39.684Z,101738.25
2022-08-20T06:38:06.201Z,101732.22
2022-08-20T06:40:34.400Z,101735.59
2022-08-20T06:43:01.619Z,101733.34
2022-08-20T06:45:31.763Z,101730.75
2022-08-20T06:48:01.194Z,101735.63
2022-08-20T06:50:31.876Z,101747.72
2022-08-20T06:53:00.249Z,101743.94
2022-08-20T06:55:27.647Z,101737.13
2022-08-20T06:57:59.919Z,101739.03
2022-08-20T07:00:28.399Z,101742.06
2022-08-20T07:02:55.104Z,101748.06
2022-08-20T07:05:21.706Z,101751.41
2022-08-20T07:07:49.634Z,101750.28
2022-08-20T07:10:17.736Z,101746.91
2022-08-20T07:12:44.700Z,101750.34
2022-08-20T07:15:12.309Z,101748.06
2022-08-20T07:17:39.539Z,101749.22
2022-08-20T07:20:08.424Z,101751.47
2022-08-20T07:22:37.906Z,101753.34
2022-08-20T07:25:06.445Z,101757.88
2022-08-20T07:27:33.481Z,101757.88
2022-08-20T07:30:20.135Z,101762.00
2022-08-20T07:32:53.089Z,101759.41
2022-08-20T07:35:20.002Z,101765.06
2022-08-20T07:37:49.222Z,101765.81
2022-08-20T07:40:25.731Z,101765.81
2022-08-20T07:42:53.939Z,101769.22
2022-08-20T07:45:20.734Z,101769.97
2022-08-20T07:47:48.129Z,101775.66
2022-08-20T07:50:19.965Z,101772.28
2022-08-20T07:52:47.067Z,101777.56
2022-08-20T07:55:16.495Z,101782.84
2022-08-20T07:57:47.056Z,101784.75
2022-08-20T08:00:14.922Z,101787.06
2022-08-20T08:02:41.844Z,101778.31
2022-08-20T08:05:08.867Z,101785.81
2022-08-20T08:07:36.030Z,101782.88
2022-08-20T08:10:07.425Z,101790.88
2022-08-20T08:12:38.921Z,101787.50
2022-08-20T08:15:10.023Z,101793.53
2022-08-20T08:17:38.079Z,101782.50
2022-08-20T08:20:07.021Z,101787.78
2022-08-20T08:22:33.667Z,101781.88
2022-08-20T08:25:02.445Z,101789.03
2022-08-20T08:27:34.182Z,101783.84
2022-08-20T08:30:01.715Z,101786.16
2022-08-20T08:32:31.161Z,101780.88
2022-08-20T08:34:58.725Z,101791.88
2022-08-20T08:37:28.909Z,101791.25
2022-08-20T08:39:57.133Z,101792.31
2022-08-20T08:42:38.007Z,101797.19
2022-08-20T08:45:10.713Z,101799.88
2022-08-20T08:47:39.337Z,101794.53
2022-08-20T08:50:10.083Z,101792.38
2022-08-20T08:52:42.486Z,101799.06
2022-08-20T08:55:14.253Z,101795.47
2022-08-20T08:57:41.443Z,101795.25
2022-08-20T09:00:13.225Z,101798.59
2022-08-20T09:02:42.565Z,101791.94
2022-08-20T09:05:16.059Z,101798.13
2022-08-20T09:07:47.933Z,101795.34
2022-08-20T09:10:14.470Z,101800.34
2022-08-20T09:12:44.548Z,101798.53
2022-08-20T09:15:14.128Z,101794.63
2022-08-20T09:17:41.545Z,101800.91
2022-08-20T09:20:10.374Z,101806.03
2022-08-20T09:22:36.924Z,101802.72
2022-08-20T09:25:04.494Z,101809.13
2022-08-20T09:27:32.105Z,101804.66
2022-08-20T09:29:58.783Z,101794.81
2022-08-20T09:32:26.119Z,101801.69
2022-08-20T09:34:59.140Z,101794.09
2022-08-20T09:37:27.901Z,101801.09
2022-08-20T09:39:56.427Z,101802.44
2022-08-20T09:42:31.515Z,101795.56
2022-08-20T09:44:59.165Z,101797.97
2022-08-20T09:47:26.660Z,101801.38
2022-08-20T09:49:54.101Z,101806.56
2022-08-20T09:52:31.081Z,101801.28
2022-08-20T09:55:07.821Z,101794.00
2022-08-20T09:57:34.946Z,101804.97
2022-08-20T10:00:12.427Z,101801.09
2022-08-20T10:02:39.701Z,101793.16
2022-08-20T10:05:07.794Z,101797.69
2022-08-20T10:07:38.844Z,101789.56
2022-08-20T10:10:07.769Z,101789.16
2022-08-20T10:12:34.398Z,101791.50
2022-08-20T10:15:00.994Z,101799.47
2022-08-20T10:17:27.561Z,101794.75
2022-08-20T10:19:54.155Z,101791.50
2022-08-20T10:22:21.108Z,101794.81
2022-08-20T10:24:47.738Z,101781.63
2022-08-20T10:27:14.333Z,101795.50
2022-08-20T10:29:45.099Z,101798.06
2022-08-20T10:32:16.861Z,101793.72
2022-08-20T10:34:45.602Z,101803.16
2022-08-20T10:37:22.604Z,101806.25
2022-08-20T10:39:49.205Z,101806.94
2022-08-20T10:42:15.841Z,101799.03
2022-08-20T10:44:42.657Z,101799.41
2022-08-20T10:47:18.213Z,101802.06
2022-08-20T10:49:44.942Z,101801.06
2022-08-20T10:52:11.642Z,101802.94
2022-08-20T10:54:42.286Z,101814.91
2022-08-20T10:57:13.139Z,101802.72
2022-08-20T10:59:41.548Z,101795.91
2022-08-20T11:02:09.115Z,101807.00
2022-08-20T11:04:36.572Z,101801.50
2022-08-20T11:07:13.156Z,101798.63
2022-08-20T11:09:39.739Z,101804.28
2022-08-20T11:12:06.692Z,101805.50
2022-08-20T11:14:34.152Z,101807.78
2022-08-20T11:17:01.709Z,101803.38
2022-08-20T11:19:28.293Z,101810.72
2022-08-20T11:21:54.899Z,101800.63
2022-08-20T11:24:21.491Z,101806.91
2022-08-20T11:26:50.433Z,101805.25
2022-08-20T11:29:17.407Z,101803.94
2022-08-20T11:31:43.939Z,101804.94
2022-08-20T11:34:12.704Z,101806.56
2022-08-20T11:36:39.635Z,101807.63
2022-08-20T11:39:06.300Z,101805.28
2022-08-20T11:41:33.002Z,101813.59
2022-08-20T11:44:19.279Z,101812.00
2022-08-20T11:46:46.086Z,101808.34
2022-08-20T11:49:14.222Z,101811.75
2022-08-20T11:51:49.139Z,101800.38
2022-08-20T11:54:16.891Z,101807.31
2022-08-20T11:56:45.941Z,101803.28
2022-08-20T11:59:13.556Z,101808.19
2022-08-20T12:01:40.142Z,101808.88
2022-08-20T12:04:06.889Z,101814.53
2022-08-20T12:06:33.781Z,101814.50
2022-08-20T12:09:00.441Z,101810.75
2022-08-20T12:11:27.677Z,101811.56
2022-08-20T12:13:54.418Z,101805.66
2022-08-20T12:16:21.151Z,101806.59
2022-08-20T12:18:48.682Z,101800.41
2022-08-20T12:21:15.460Z,101803.97
2022-08-20T12:23:42.094Z,101796.31
2022-08-20T12:26:09.353Z,101795.81
2022-08-20T12:28:36.026Z,101797.06
2022-08-20T12:31:02.584Z,101793.91
2022-08-20T12:33:29.116Z,101797.03
2022-08-20T12:35:57.396Z,101797.84
2022-08-20T12:38:23.993Z,101796.47
2022-08-20T12:40:50.566Z,101796.16
2022-08-20T12:43:19.654Z,101795.75
2022-08-20T12:45:48.207Z,101793.91
2022-08-20T12:48:14.972Z,101798.03
2022-08-20T12:50:43.430Z,101798.69
2022-08-20T12:53:10.120Z,101803.41
2022-08-20T12:55:36.795Z,101812.03
2022-08-20T12:58:07.481Z,101801.84
2022-08-20T13:00:43.300Z,101793.22
2022-08-20T13:03:11.686Z,101797.53
2022-08-20T13:05:40.033Z,101801.97
2022-08-20T13:08:08.918Z,101791.53
2022-08-20T13:10:45.577Z,101796.72
2022-08-20T13:13:14.540Z,101801.44
2022-08-20T13:15:41.323Z,101791.16
2022-08-20T13:18:08.534Z,101789.44
2022-08-20T13:20:36.267Z,101781.34
2022-08-20T13:23:04.867Z,101794.44
2022-08-20T13:25:32.521Z,101781.53
2022-08-20T13:28:00.959Z,101778.59
2022-08-20T13:30:27.816Z,101777.03
2022-08-20T13:32:54.763Z,101778.97
2022-08-20T13:35:21.647Z,101789.88
2022-08-20T13:37:49.967Z,101781.09
2022-08-20T13:40:16.805Z,101781.75
2022-08-20T13:42:43.552Z,101782.88
2022-08-20T13:45:10.918Z,101780.84
2022-08-20T13:47:40.176Z,101777.13
2022-08-20T13:50:10.159Z,101782.91
2022-08-20T13:52:38.416Z,101774.91
2022-08-20T13:55:07.262Z,101781.53
2022-08-20T13:57:33.987Z,101768.09
2022-08-20T14:00:01.059Z,101771.22
2022-08-20T14:02:27.929Z,101768.09
2022-08-20T14:04:54.752Z,101772.84
2022-08-20T14:07:32.007Z,101768.00
2022-08-20T14:10:06.674Z,101768.06
2022-08-20T14:12:33.267Z,101777.63
2022-08-20T14:14:59.802Z,101778.59
2022-08-20T14:17:32.569Z,101768.09
2022-08-20T14:20:02.056Z,101784.09
2022-08-20T14:22:29.466Z,101776.38
2022-08-20T14:24:56.585Z,101780.59
2022-08-20T14:27:26.553Z,101782.97
2022-08-20T14:29:57.673Z,101773.50
2022-08-20T14:32:24.363Z,101783.22
2022-08-20T14:34:50.895Z,101772.28
2022-08-20T14:37:24.443Z,101780.84
2022-08-20T14:39:54.005Z,101787.25
2022-08-20T14:42:22.961Z,101779.75
2022-08-20T14:44:50.644Z,101789.25
2022-08-20T14:47:20.087Z,101784.97
2022-08-20T14:49:48.811Z,101789.53
2022-08-20T14:52:17.384Z,101779.72
2022-08-20T14:54:45.030Z,101783.16
2022-08-20T14:57:14.972Z,101782.72
2022-08-20T14:59:42.159Z,101786.81
2022-08-20T15:02:11.607Z,101778.44
2022-08-20T15:04:38.992Z,101784.88
2022-08-20T15:07:14.754Z,101783.59
2022-08-20T15:09:42.923Z,101778.47
2022-08-20T15:12:09.554Z,101784.53
2022-08-20T15:14:39.186Z,101785.00
2022-08-20T15:17:06.380Z,101778.00
2022-08-20T15:19:33.022Z,101784.41
2022-08-20T15:21:59.662Z,101780.22
2022-08-20T15:24:26.290Z,101784.19
2022-08-20T15:26:52.865Z,101778.34
2022-08-20T15:29:22.874Z,101776.34
2022-08-20T15:31:49.757Z,101781.81
2022-08-20T15:34:17.889Z,101788.72
2022-08-20T15:36:45.252Z,101779.75
2022-08-20T15:39:11.786Z,101782.56
2022-08-20T15:41:38.336Z,101776.22
2022-08-20T15:44:05.029Z,101772.03
2022-08-20T15:46:36.283Z,101777.00
2022-08-20T15:49:11.590Z,101785.97
2022-08-20T15:51:46.683Z,101795.41
2022-08-20T15:54:23.813Z,101790.88
2022-08-20T15:57:14.145Z,101794.59
2022-08-20T16:00:02.196Z,101793.00
2022-08-20T16:02:50.290Z,101796.56
2022-08-20T16:05:23.353Z,101801.47
2022-08-20T16:07:53.794Z,101803.44
2022-08-20T16:10:38.806Z,101802.66
2022-08-20T16:13:12.731Z,101799.03
2022-08-20T16:15:45.175Z,101797.56
2022-08-20T16:18:22.018Z,101799.03
2022-08-20T16:20:55.416Z,101791.66
2022-08-20T16:23:30.846Z,101797.84
2022-08-20T16:26:15.680Z,101799.50
2022-08-20T16:29:04.214Z,101805.06
2022-08-20T16:31:47.375Z,101800.31
2022-08-20T16:34:29.889Z,101800.53
2022-08-20T16:37:06.515Z,101801.44
2022-08-20T16:39:42.580Z,101803.72
2022-08-20T16:42:10.718Z,101808.81
2022-08-20T16:44:44.933Z,101813.03
2022-08-20T16:47:38.449Z,101804.03
2022-08-20T16:50:13.467Z,101811.00
2022-08-20T16:52:42.622Z,101807.72
2022-08-20T16:55:09.776Z,101802.78
2022-08-20T16:57:36.371Z,101811.63
2022-08-20T17:00:14.807Z,101802.66
2022-08-20T17:02:53.828Z,101805.91
2022-08-20T17:05:22.254Z,101808.19
2022-08-20T17:08:03.589Z,101803.69
2022-08-20T17:10:54.445Z,101804.03
2022-08-20T17:13:34.723Z,101811.03
2022-08-20T17:16:08.353Z,101813.84
2022-08-20T17:18:38.218Z,101809.19
2022-08-20T17:21:23.200Z,101814.59
2022-08-20T17:24:02.274Z,101811.00
2022-08-20T17:26:32.724Z,101816.38
2022-08-20T17:29:02.655Z,101805.09
2022-08-20T17:31:39.226Z,101811.25
2022-08-20T17:34:12.600Z,101810.44
2022-08-20T17:36:57.827Z,101820.84
2022-08-20T17:39:27.440Z,101812.28
2022-08-20T17:42:03.130Z,101816.00
2022-08-20T17:44:34.482Z,101813.59
2022-08-20T17:47:04.443Z,101817.91
2022-08-20T17:50:01.213Z,101811.81
2022-08-20T17:52:43.488Z,101809.13
2022-08-20T17:55:12.029Z,101815.72
2022-08-20T17:57:44.668Z,101811.50
2022-08-20T18:00:16.959Z,101815.97
2022-08-20T18:02:47.522Z,101820.03
2022-08-20T18:05:19.439Z,101811.88
2022-08-20T18:08:11.484Z,101812.50
2022-08-20T18:11:01.052Z,101814.22
2022-08-20T18:13:33.737Z,101828.69
2022-08-20T18:16:01.988Z,101824.63
2022-08-20T18:18:33.964Z,101821.06
2022-08-20T18:21:00.466Z,101821.19
2022-08-20T18:23:35.575Z,101826.84
2022-08-20T18:26:10.183Z,101832.00
2022-08-20T18:28:45.607Z,101837.03
2022-08-20T18:31:27.715Z,101827.97
2022-08-20T18:33:54.764Z,101840.13
2022-08-20T18:36:21.402Z,101836.59
2022-08-20T18:39:03.728Z,101836.19
2022-08-20T18:41:54.584Z,101837.81
2022-08-20T18:44:51.450Z,101831.50
2022-08-20T18:47:35.626Z,101830.56
2022-08-20T18:50:17.357Z,101827.00
2022-08-20T18:52:53.898Z,101837.69
2022-08-20T18:55:36.508Z,101844.38
2022-08-20T18:58:06.798Z,101846.25
2022-08-20T19:00:47.226Z,101844.31
2022-08-20T19:03:31.287Z,101833.63
2022-08-20T19:06:22.082Z,101836.53
2022-08-20T19:09:21.158Z,101834.22
2022-08-20T19:12:13.593Z,101838.50
2022-08-20T19:14:58.515Z,101834.91
2022-08-20T19:17:57.888Z,101830.66
2022-08-20T19:20:28.276Z,101834.06
2022-08-20T19:23:01.768Z,101843.38
2022-08-20T19:25:34.979Z,101833.84
2022-08-20T19:28:07.317Z,101845.91
2022-08-20T19:30:40.559Z,101838.53
2022-08-20T19:33:08.951Z,101837.69
2022-08-20T19:35:36.387Z,101837.44
2022-08-20T19:38:03.481Z,101831.66
2022-08-20T19:40:39.220Z,101844.75
2022-08-20T19:43:12.190Z,101840.38
2022-08-20T19:45:47.950Z,101836.78
2022-08-20T19:48:33.451Z,101846.44
2022-08-20T19:51:22.541Z,101851.63
2022-08-20T19:53:51.140Z,101847.72
2022-08-20T19:56:27.974Z,101848.25
2022-08-20T19:59:09.259Z,101837.78
2022-08-20T20:01:36.519Z,101833.00
2022-08-20T20:04:07.025Z,101839.22
2022-08-20T20:06:41.731Z,101835.97
2022-08-20T20:09:28.798Z,101836.91
2022-08-20T20:12:05.167Z,101835.09
2022-08-20T20:14:38.050Z,101831.88
2022-08-20T20:17:14.529Z,101836.16
2022-08-20T20:20:00.714Z,101830.22
2022-08-20T20:22:47.678Z,101832.94
2022-08-20T20:25:17.404Z,101833.00
2022-08-20T20:27:50.233Z,101827.84
2022-08-20T20:30:25.058Z,101830.13
2022-08-20T20:32:52.158Z,101833.63
2022-08-20T20:35:30.407Z,101832.53
2022-08-20T20:38:02.159Z,101818.56
2022-08-20T20:40:33.971Z,101822.78
2022-08-20T20:43:12.219Z,101831.53
2022-08-20T20:45:45.657Z,101822.88
2022-08-20T20:48:14.973Z,101813.88
2022-08-20T20:50:42.412Z,101821.09
2022-08-20T20:53:09.241Z,101822.28
2022-08-20T20:55:38.238Z,101815.88
2022-08-20T20:58:04.912Z,101822.75
2022-08-20T21:00:33.700Z,101823.56
2022-08-20T21:03:03.771Z,101818.63
2022-08-20T21:05:32.817Z,101819.06
2022-08-20T21:08:02.409Z,101820.97
2022-08-20T21:10:32.607Z,101823.22
2022-08-20T21:12:59.947Z,101815.69
2022-08-20T21:15:27.142Z,101820.25
2022-08-20T21:17:54.214Z,101819.50
2022-08-20T21:20:22.132Z,101819.16
2022-08-20T21:22:48.764Z,101818.38
2022-08-20T21:25:15.489Z,101827.47
2022-08-20T21:27:48.492Z,101820.28
2022-08-20T21:30:16.913Z,101817.25
2022-08-20T21:32:43.564Z,101826.66
2022-08-20T21:35:10.750Z,101825.91
2022-08-20T21:37:37.773Z,101815.34
2022-08-20T21:40:06.801Z,101829.31
2022-08-20T21:42:33.625Z,101822.88
2022-08-20T21:45:05.108Z,101825.13
2022-08-20T21:47:31.774Z,101826.63
2022-08-20T21:49:58.291Z,101831.16
2022-08-20T21:52:24.875Z,101816.78
2022-08-20T21:54:51.998Z,101824.69
2022-08-20T21:57:21.023Z,101824.31
2022-08-20T21:59:48.592Z,101822.00
2022-08-20T22:02:17.182Z,101817.09
2022-08-20T22:04:43.770Z,101826.88
2022-08-20T22:07:11.037Z,101825.00
2022-08-20T22:09:38.947Z,101829.47
2022-08-20T22:12:11.478Z,101819.28
2022-08-20T22:14:38.014Z,101830.94
2022-08-20T22:17:07.575Z,101823.38
2022-08-20T22:19:34.325Z,101821.06
2022-08-20T22:22:00.919Z,101821.06
2022-08-20T22:24:29.045Z,101816.16
2022-08-20T22:26:55.899Z,101808.56
2022-08-20T22:29:22.449Z,101806.28
2022-08-20T22:31:48.991Z,101811.53
2022-08-20T22:34:18.593Z,101808.13
2022-08-20T22:36:45.384Z,101807.34
2022-08-20T22:39:12.248Z,101809.94
2022-08-20T22:41:39.659Z,101803.50
2022-08-20T22:44:06.987Z,101799.72
2022-08-20T22:46:46.283Z,101798.19
2022-08-20T22:49:17.646Z,101800.41
2022-08-20T22:51:44.569Z,101804.53
2022-08-20T22:54:13.918Z,101796.97
2022-08-20T22:56:40.948Z,101793.13
2022-08-20T22:59:07.823Z,101788.97
2022-08-20T23:01:34.491Z,101792.34
2022-08-20T23:04:07.212Z,101784.72
2022-08-20T23:06:33.783Z,101788.88
2022-08-20T23:09:00.325Z,101789.97
2022-08-20T23:11:26.853Z,101788.41
2022-08-20T23:13:53.472Z,101788.41
2022-08-20T23:16:20.029Z,101791.75
2022-08-20T23:18:46.591Z,101786.44
2022-08-20T23:21:13.138Z,101782.25
2022-08-20T23:23:39.709Z,101781.88
2022-08-20T23:26:06.599Z,101785.94
2022-08-20T23:28:33.603Z,101787.03
2022-08-20T23:31:00.497Z,101790.38
2022-08-20T23:33:27.070Z,101783.19
2022-08-20T23:35:53.800Z,101782.06
2022-08-20T23:38:21.175Z,101780.09
2022-08-20T23:40:47.664Z,101781.19
2022-08-20T23:43:14.246Z,101783.06
2022-08-20T23:45:41.470Z,101773.63
2022-08-20T23:48:08.944Z,101770.94
2022-08-20T23:50:36.871Z,101784.44
2022-08-20T23:53:04.645Z,101771.28
2022-08-20T23:55:31.233Z,101767.06
2022-08-20T23:57:57.762Z,101776.44
